createdAt,value
2018-12-02T00:00:11.852Z,26.10
2018-12-02T00:01:11.864Z,28.50
2018-12-02T00:02:11.833Z,27.50
2018-12-02T00:03:11.823Z,26.00
2018-12-02T00:04:11.816Z,25.60
2018-12-02T00:05:11.795Z,26.60
2018-12-02T00:06:11.803Z,28.00
2018-12-02T00:07:11.774Z,24.40
2018-12-02T00:08:11.782Z,28.00
2018-12-02T00:09:11.760Z,27.10
2018-12-02T00:10:11.757Z,28.70
2018-12-02T00:11:11.766Z,30.40
2018-12-02T00:12:11.722Z,27.00
2018-12-02T00:13:11.715Z,29.80
2018-12-02T00:14:11.702Z,31.50
2018-12-02T00:15:11.689Z,29.40
2018-12-02T00:16:11.676Z,28.20
2018-12-02T00:17:11.685Z,25.90
2018-12-02T00:18:11.660Z,26.60
2018-12-02T00:19:11.654Z,27.90
2018-12-02T00:20:11.639Z,29.70
2018-12-02T00:21:11.634Z,27.40
2018-12-02T00:22:11.630Z,26.30
2018-12-02T00:23:11.606Z,31.50
2018-12-02T00:24:11.615Z,28.50
2018-12-02T00:25:11.587Z,28.20
2018-12-02T00:26:11.575Z,30.30
2018-12-02T00:27:11.575Z,27.10
2018-12-02T00:28:11.609Z,31.10
2018-12-02T00:29:11.538Z,31.40
2018-12-02T00:30:11.527Z,30.40
2018-12-02T00:31:11.517Z,32.00
2018-12-02T00:32:11.506Z,31.00
2018-12-02T00:33:11.501Z,28.80
2018-12-02T00:34:11.508Z,37.70
2018-12-02T00:35:11.479Z,32.80
2018-12-02T00:36:11.463Z,29.60
2018-12-02T00:37:11.453Z,28.30
2018-12-02T00:38:11.441Z,27.20
2018-12-02T00:39:11.434Z,28.70
2018-12-02T00:40:11.447Z,29.80
2018-12-02T00:41:11.411Z,26.40
2018-12-02T00:42:11.399Z,26.40
2018-12-02T00:43:11.389Z,29.70
2018-12-02T00:44:11.383Z,29.10
2018-12-02T00:45:11.402Z,26.00
2018-12-02T00:46:11.368Z,27.80
2018-12-02T00:47:11.348Z,30.40
2018-12-02T00:48:11.344Z,31.70
2018-12-02T00:49:11.349Z,29.20
2018-12-02T00:50:11.321Z,30.30
2018-12-02T00:51:11.364Z,27.40
2018-12-02T00:52:11.299Z,27.10
2018-12-02T00:53:11.282Z,26.10
2018-12-02T00:54:11.281Z,26.60
2018-12-02T00:55:11.261Z,28.80
2018-12-02T00:56:11.257Z,27.40
2018-12-02T00:57:11.247Z,27.70
2018-12-02T00:58:11.233Z,27.20
2018-12-02T00:59:11.233Z,28.00
2018-12-02T01:00:11.218Z,25.70
2018-12-02T01:01:11.228Z,27.60
2018-12-02T01:02:11.191Z,27.30
2018-12-02T01:03:11.194Z,24.50
2018-12-02T01:04:11.165Z,24.00
2018-12-02T01:05:11.155Z,29.30
2018-12-02T01:06:11.151Z,25.20
2018-12-02T01:07:11.150Z,24.60
2018-12-02T01:08:11.125Z,27.90
2018-12-02T01:09:11.123Z,25.00
2018-12-02T01:10:11.107Z,24.80
2018-12-02T01:11:11.094Z,26.00
2018-12-02T01:12:11.105Z,24.50
2018-12-02T01:13:11.084Z,23.30
2018-12-02T01:14:11.070Z,26.20
2018-12-02T01:15:11.059Z,23.50
2018-12-02T01:16:11.038Z,25.40
2018-12-02T01:17:11.041Z,25.00
2018-12-02T01:18:11.030Z,25.50
2018-12-02T01:19:11.050Z,23.50
2018-12-02T01:20:11.004Z,23.60
2018-12-02T01:21:10.991Z,23.20
2018-12-02T01:22:10.975Z,22.70
2018-12-02T01:23:10.973Z,21.30
2018-12-02T01:24:10.967Z,26.50
2018-12-02T01:25:10.975Z,27.00
2018-12-02T01:26:10.938Z,24.70
2018-12-02T01:27:10.930Z,26.10
2018-12-02T01:28:10.927Z,22.00
2018-12-02T01:29:10.951Z,24.80
2018-12-02T01:30:10.933Z,24.20
2018-12-02T01:31:10.884Z,23.10
2018-12-02T01:32:10.876Z,24.10
2018-12-02T01:33:10.857Z,25.60
2018-12-02T01:34:10.847Z,22.50
2018-12-02T01:35:10.847Z,23.80
2018-12-02T01:36:10.854Z,25.40
2018-12-02T01:37:10.816Z,24.20
2018-12-02T01:38:10.815Z,28.10
2018-12-02T01:39:10.795Z,22.20
2018-12-02T01:40:10.790Z,23.10
2018-12-02T01:41:10.777Z,20.60
2018-12-02T01:42:10.781Z,22.90
2018-12-02T01:43:10.756Z,23.20
2018-12-02T01:44:10.749Z,23.90
2018-12-02T01:45:10.742Z,24.70
2018-12-02T01:46:10.719Z,22.80
2018-12-02T01:47:10.761Z,22.20
2018-12-02T01:48:10.702Z,23.60
2018-12-02T01:49:10.698Z,25.00
2018-12-02T01:50:10.677Z,24.40
2018-12-02T01:51:10.668Z,21.20
2018-12-02T01:52:10.661Z,21.20
2018-12-02T01:53:10.659Z,21.50
2018-12-02T01:54:10.656Z,22.30
2018-12-02T01:55:10.628Z,22.30
2018-12-02T01:56:10.622Z,23.90
2018-12-02T01:57:10.607Z,20.80
2018-12-02T01:58:10.597Z,22.70
2018-12-02T01:59:10.597Z,24.70
2018-12-02T02:00:10.595Z,23.00
2018-12-02T02:01:10.565Z,24.90
2018-12-02T02:02:10.560Z,24.50
2018-12-02T02:03:10.552Z,27.30
2018-12-02T02:04:10.533Z,24.40
2018-12-02T02:05:10.529Z,25.50
2018-12-02T02:06:10.506Z,25.90
2018-12-02T02:07:10.502Z,27.40
2018-12-02T02:08:10.498Z,23.30
2018-12-02T02:09:10.490Z,24.40
2018-12-02T02:10:10.496Z,24.10
2018-12-02T02:11:10.482Z,25.00
2018-12-02T02:12:10.445Z,25.00
2018-12-02T02:13:10.434Z,25.40
2018-12-02T02:14:10.434Z,22.60
2018-12-02T02:15:10.411Z,23.60
2018-12-02T02:16:10.417Z,20.50
2018-12-02T02:17:10.393Z,24.90
2018-12-02T02:18:10.412Z,21.80
2018-12-02T02:19:10.375Z,22.80
2018-12-02T02:20:10.368Z,24.30
2018-12-02T02:21:10.398Z,24.40
2018-12-02T02:22:10.337Z,22.90
2018-12-02T02:23:10.332Z,21.50
2018-12-02T02:24:10.317Z,23.50
2018-12-02T02:25:10.307Z,24.70
2018-12-02T02:26:10.297Z,24.50
2018-12-02T02:27:10.340Z,23.40
2018-12-02T02:28:10.279Z,26.00
2018-12-02T02:29:10.270Z,25.70
2018-12-02T02:30:10.253Z,23.60
2018-12-02T02:31:10.258Z,24.90
2018-12-02T02:32:10.264Z,22.90
2018-12-02T02:33:10.228Z,22.30
2018-12-02T02:34:10.217Z,25.20
2018-12-02T02:35:10.206Z,22.10
2018-12-02T02:36:10.210Z,22.70
2018-12-02T02:37:10.183Z,25.30
2018-12-02T02:38:10.216Z,25.60
2018-12-02T02:39:10.157Z,23.20
2018-12-02T02:40:10.151Z,23.20
2018-12-02T02:41:10.146Z,26.50
2018-12-02T02:42:10.135Z,26.10
2018-12-02T02:43:10.122Z,22.30
2018-12-02T02:44:10.144Z,23.80
2018-12-02T02:45:10.098Z,23.50
2018-12-02T02:46:10.088Z,40.40
2018-12-02T02:47:10.078Z,41.60
2018-12-02T02:48:10.116Z,82.20
2018-12-02T02:49:10.059Z,39.70
2018-12-02T02:50:10.091Z,81.10
2018-12-02T02:51:10.031Z,29.50
2018-12-02T02:52:10.031Z,22.60
2018-12-02T02:53:10.021Z,23.40
2018-12-02T02:54:10.001Z,24.20
2018-12-02T02:55:09.992Z,22.40
2018-12-02T02:56:10.002Z,24.20
2018-12-02T02:57:09.973Z,22.70
2018-12-02T02:58:09.957Z,23.80
2018-12-02T02:59:09.947Z,25.40
2018-12-02T03:00:09.945Z,20.20
2018-12-02T03:01:09.945Z,24.80
2018-12-02T03:02:09.932Z,22.10
2018-12-02T03:03:09.904Z,21.50
2018-12-02T03:04:09.914Z,22.40
2018-12-02T03:05:09.881Z,23.20
2018-12-02T03:06:09.885Z,21.10
2018-12-02T03:07:09.907Z,22.10
2018-12-02T03:08:09.857Z,20.00
2018-12-02T03:09:09.844Z,20.80
2018-12-02T03:10:09.830Z,21.60
2018-12-02T03:11:09.860Z,20.30
2018-12-02T03:12:09.811Z,20.80
2018-12-02T03:13:09.801Z,20.30
2018-12-02T03:14:09.799Z,20.80
2018-12-02T03:15:09.782Z,20.00
2018-12-02T03:16:09.770Z,21.00
2018-12-02T03:17:09.775Z,20.10
2018-12-02T03:18:09.748Z,21.30
2018-12-02T03:19:09.740Z,20.30
2018-12-02T03:20:09.739Z,20.60
2018-12-02T03:21:09.721Z,23.20
2018-12-02T03:22:09.748Z,21.10
2018-12-02T03:23:09.703Z,20.90
2018-12-02T03:24:09.687Z,22.30
2018-12-02T03:25:09.677Z,22.80
2018-12-02T03:26:09.675Z,20.50
2018-12-02T03:27:09.654Z,20.40
2018-12-02T03:28:09.694Z,21.40
2018-12-02T03:29:09.642Z,22.60
2018-12-02T03:30:09.627Z,20.20
2018-12-02T03:31:09.614Z,20.10
2018-12-02T03:32:09.607Z,21.30
2018-12-02T03:33:09.592Z,22.70
2018-12-02T03:34:09.586Z,22.30
2018-12-02T03:35:09.575Z,21.70
2018-12-02T03:36:09.559Z,21.40
2018-12-02T03:37:09.552Z,22.00
2018-12-02T03:38:09.540Z,24.20
2018-12-02T03:39:09.563Z,22.30
2018-12-02T03:40:09.519Z,21.50
2018-12-02T03:41:09.505Z,21.10
2018-12-02T03:42:09.508Z,23.30
2018-12-02T03:43:09.487Z,23.90
2018-12-02T03:44:09.480Z,20.40
2018-12-02T03:45:09.485Z,22.00
2018-12-02T03:46:09.629Z,21.90
2018-12-02T03:47:09.450Z,21.30
2018-12-02T03:48:09.442Z,20.50
2018-12-02T03:49:09.422Z,20.50
2018-12-02T03:50:09.451Z,20.50
2018-12-02T03:51:09.403Z,22.10
2018-12-02T03:52:09.395Z,21.70
2018-12-02T03:53:09.386Z,20.30
2018-12-02T03:54:09.379Z,22.20
2018-12-02T03:55:09.361Z,20.80
2018-12-02T03:56:09.364Z,21.40
2018-12-02T03:57:09.342Z,20.80
2018-12-02T03:58:09.325Z,22.60
2018-12-02T03:59:09.324Z,21.30
2018-12-02T04:00:09.317Z,20.10
2018-12-02T04:01:09.343Z,21.50
2018-12-02T04:02:09.291Z,22.30
2018-12-02T04:03:09.281Z,22.90
2018-12-02T04:04:09.271Z,18.90
2018-12-02T04:05:09.251Z,21.60
2018-12-02T04:06:09.244Z,21.10
2018-12-02T04:07:09.241Z,21.60
2018-12-02T04:08:09.234Z,20.60
2018-12-02T04:09:09.219Z,18.70
2018-12-02T04:10:09.209Z,21.80
2018-12-02T04:11:09.189Z,18.50
2018-12-02T04:12:09.188Z,20.30
2018-12-02T04:13:09.172Z,19.40
2018-12-02T04:14:09.166Z,19.50
2018-12-02T04:15:09.176Z,21.00
2018-12-02T04:16:09.141Z,20.60
2018-12-02T04:17:09.129Z,22.80
2018-12-02T04:18:09.139Z,20.00
2018-12-02T04:19:09.109Z,20.30
2018-12-02T04:20:09.101Z,19.50
2018-12-02T04:21:09.097Z,20.30
2018-12-02T04:22:09.117Z,19.80
2018-12-02T04:23:09.073Z,20.40
2018-12-02T04:24:09.064Z,21.50
2018-12-02T04:25:09.050Z,19.40
2018-12-02T04:26:09.037Z,19.80
2018-12-02T04:27:09.034Z,19.90
2018-12-02T04:28:09.026Z,20.50
2018-12-02T04:29:08.999Z,21.80
2018-12-02T04:30:08.998Z,21.50
2018-12-02T04:31:08.982Z,22.30
2018-12-02T04:32:08.974Z,19.50
2018-12-02T04:33:08.991Z,19.90
2018-12-02T04:34:08.948Z,20.30
2018-12-02T04:35:08.935Z,20.40
2018-12-02T04:36:08.936Z,20.00
2018-12-02T04:37:08.918Z,20.50
2018-12-02T04:38:08.913Z,21.70
2018-12-02T04:39:08.929Z,20.10
2018-12-02T04:40:08.887Z,20.20
2018-12-02T04:41:08.877Z,20.60
2018-12-02T04:42:08.879Z,21.00
2018-12-02T04:43:08.859Z,20.90
2018-12-02T04:44:08.848Z,22.20
2018-12-02T04:45:08.857Z,20.70
2018-12-02T04:46:08.825Z,23.20
2018-12-02T04:47:08.809Z,23.80
2018-12-02T04:48:08.809Z,22.80
2018-12-02T04:49:08.832Z,19.10
2018-12-02T04:50:08.792Z,23.20
2018-12-02T04:51:08.774Z,21.80
2018-12-02T04:52:08.756Z,20.50
2018-12-02T04:53:08.749Z,22.10
2018-12-02T04:54:08.740Z,21.20
2018-12-02T04:55:08.750Z,21.10
2018-12-02T04:56:08.725Z,20.50
2018-12-02T04:57:08.703Z,19.40
2018-12-02T04:58:08.696Z,20.80
2018-12-02T04:59:08.697Z,22.30
2018-12-02T05:00:08.726Z,21.00
2018-12-02T05:01:08.660Z,19.80
2018-12-02T05:02:08.668Z,21.30
2018-12-02T05:03:08.642Z,20.80
2018-12-02T05:04:08.629Z,19.70
2018-12-02T05:05:08.617Z,20.50
2018-12-02T05:06:08.631Z,21.70
2018-12-02T05:07:08.617Z,19.40
2018-12-02T05:08:08.587Z,20.00
2018-12-02T05:09:08.582Z,20.70
2018-12-02T05:10:08.577Z,21.10
2018-12-02T05:11:08.560Z,19.10
2018-12-02T05:12:08.554Z,20.70
2018-12-02T05:13:08.542Z,22.20
2018-12-02T05:14:08.553Z,20.40
2018-12-02T05:15:08.523Z,20.20
2018-12-02T05:16:08.510Z,20.60
2018-12-02T05:17:08.493Z,19.70
2018-12-02T05:18:08.480Z,22.20
2018-12-02T05:19:08.473Z,20.00
2018-12-02T05:20:08.479Z,21.10
2018-12-02T05:21:08.457Z,21.50
2018-12-02T05:22:08.439Z,20.00
2018-12-02T05:23:08.429Z,21.40
2018-12-02T05:24:08.422Z,20.50
2018-12-02T05:25:08.423Z,20.60
2018-12-02T05:26:08.416Z,20.70
2018-12-02T05:27:08.387Z,21.10
2018-12-02T05:28:08.377Z,20.60
2018-12-02T05:29:08.366Z,21.10
2018-12-02T05:30:08.359Z,17.90
2018-12-02T05:31:08.362Z,20.70
2018-12-02T05:32:08.336Z,18.80
2018-12-02T05:33:08.326Z,18.10
2018-12-02T05:34:08.317Z,19.30
2018-12-02T05:35:08.321Z,18.60
2018-12-02T05:36:08.292Z,18.90
2018-12-02T05:37:08.359Z,18.00
2018-12-02T05:38:08.342Z,18.60
2018-12-02T05:39:08.265Z,21.00
2018-12-02T05:40:08.256Z,18.20
2018-12-02T05:41:08.241Z,18.40
2018-12-02T05:42:08.229Z,21.00
2018-12-02T05:43:08.235Z,19.20
2018-12-02T05:44:08.220Z,19.30
2018-12-02T05:45:08.196Z,20.40
2018-12-02T05:46:08.202Z,19.60
2018-12-02T05:47:08.181Z,19.20
2018-12-02T05:48:08.190Z,18.70
2018-12-02T05:49:08.165Z,19.50
2018-12-02T05:50:08.147Z,18.60
2018-12-02T05:51:08.140Z,18.70
2018-12-02T05:52:08.122Z,16.90
2018-12-02T05:53:08.136Z,17.00
2018-12-02T05:54:08.101Z,17.70
2018-12-02T05:55:08.103Z,17.50
2018-12-02T05:56:08.082Z,18.00
2018-12-02T05:57:08.076Z,18.80
2018-12-02T05:58:08.059Z,18.20
2018-12-02T05:59:08.067Z,16.90
2018-12-02T06:00:08.039Z,19.00
2018-12-02T06:01:08.043Z,18.50
2018-12-02T06:02:08.017Z,17.10
2018-12-02T06:03:08.057Z,17.90
2018-12-02T06:04:08.001Z,17.10
2018-12-02T06:05:07.985Z,16.60
2018-12-02T06:06:08.818Z,18.10
2018-12-02T06:07:07.974Z,17.50
2018-12-02T06:08:07.954Z,19.10
2018-12-02T06:09:07.955Z,16.30
2018-12-02T06:10:07.932Z,16.60
2018-12-02T06:11:07.928Z,17.10
2018-12-02T06:12:07.916Z,18.10
2018-12-02T06:13:07.902Z,18.00
2018-12-02T06:14:07.917Z,17.50
2018-12-02T06:15:07.902Z,16.90
2018-12-02T06:16:07.875Z,17.30
2018-12-02T06:17:07.864Z,17.70
2018-12-02T06:18:07.848Z,17.90
2018-12-02T06:19:07.855Z,17.40
2018-12-02T06:20:07.843Z,17.30
2018-12-02T06:21:07.824Z,17.60
2018-12-02T06:22:07.845Z,18.10
2018-12-02T06:23:07.799Z,18.00
2018-12-02T06:24:07.797Z,16.90
2018-12-02T06:25:07.791Z,16.70
2018-12-02T06:26:08.311Z,17.40
2018-12-02T06:27:07.752Z,18.80
2018-12-02T06:28:07.748Z,16.30
2018-12-02T06:29:07.736Z,16.20
2018-12-02T06:30:07.733Z,16.50
2018-12-02T06:31:07.716Z,16.40
2018-12-02T06:32:07.707Z,17.00
2018-12-02T06:33:07.689Z,17.90
2018-12-02T06:34:07.684Z,19.10
2018-12-02T06:35:07.672Z,16.90
2018-12-02T06:36:07.694Z,17.90
2018-12-02T06:37:07.653Z,16.00
2018-12-02T06:38:07.641Z,16.40
2018-12-02T06:39:07.627Z,18.90
2018-12-02T06:40:07.617Z,20.00
2018-12-02T06:41:07.612Z,16.90
2018-12-02T06:42:07.620Z,16.00
2018-12-02T06:43:07.588Z,15.70
2018-12-02T06:44:07.578Z,17.20
2018-12-02T06:45:07.581Z,16.10
2018-12-02T06:46:07.555Z,19.10
2018-12-02T06:47:07.541Z,18.40
2018-12-02T06:48:07.533Z,16.70
2018-12-02T06:49:07.525Z,16.20
2018-12-02T06:50:07.535Z,18.40
2018-12-02T06:51:07.498Z,18.30
2018-12-02T06:52:07.492Z,15.90
2018-12-02T06:53:07.506Z,17.60
2018-12-02T06:54:07.472Z,16.80
2018-12-02T06:55:07.474Z,16.90
2018-12-02T06:56:07.446Z,16.60
2018-12-02T06:57:07.439Z,16.10
2018-12-02T06:58:07.429Z,17.10
2018-12-02T06:59:07.420Z,15.70
2018-12-02T07:00:07.451Z,16.80
2018-12-02T07:01:07.401Z,16.60
2018-12-02T07:02:07.387Z,17.60
2018-12-02T07:03:07.377Z,17.80
2018-12-02T07:04:07.365Z,16.70
2018-12-02T07:05:07.359Z,15.80
2018-12-02T07:06:07.387Z,16.40
2018-12-02T07:07:07.380Z,17.40
2018-12-02T07:08:07.318Z,17.50
2018-12-02T07:09:07.312Z,17.50
2018-12-02T07:10:07.297Z,19.10
2018-12-02T07:11:07.313Z,17.60
2018-12-02T07:12:07.288Z,17.10
2018-12-02T07:13:07.278Z,17.50
2018-12-02T07:14:07.255Z,16.30
2018-12-02T07:15:07.270Z,16.90
2018-12-02T07:16:07.234Z,17.60
2018-12-02T07:17:07.226Z,17.90
2018-12-02T07:18:07.225Z,17.80
2018-12-02T07:19:07.211Z,18.30
2018-12-02T07:20:07.190Z,17.30
2018-12-02T07:21:07.236Z,16.10
2018-12-02T07:22:07.178Z,16.50
2018-12-02T07:23:07.165Z,16.50
2018-12-02T07:24:07.158Z,18.60
2018-12-02T07:25:07.154Z,17.70
2018-12-02T07:26:07.132Z,18.30
2018-12-02T07:27:07.128Z,16.70
2018-12-02T07:28:07.114Z,18.00
2018-12-02T07:29:07.114Z,18.20
2018-12-02T07:30:07.110Z,17.20
2018-12-02T07:31:07.094Z,16.30
2018-12-02T07:32:07.068Z,17.80
2018-12-02T07:33:07.065Z,18.20
2018-12-02T07:34:07.053Z,16.50
2018-12-02T07:35:07.035Z,17.70
2018-12-02T07:36:07.019Z,17.10
2018-12-02T07:37:07.026Z,19.40
2018-12-02T07:38:06.997Z,17.80
2018-12-02T07:39:06.987Z,18.70
2018-12-02T07:40:07.015Z,18.80
2018-12-02T07:41:06.972Z,15.90
2018-12-02T07:42:06.955Z,15.70
2018-12-02T07:43:06.944Z,15.80
2018-12-02T07:44:06.939Z,17.50
2018-12-02T07:45:06.932Z,17.50
2018-12-02T07:46:06.940Z,15.20
2018-12-02T07:47:06.901Z,17.90
2018-12-02T07:48:06.969Z,16.60
2018-12-02T07:49:06.882Z,15.20
2018-12-02T07:50:06.906Z,16.80
2018-12-02T07:51:06.860Z,19.00
2018-12-02T07:52:06.855Z,17.50
2018-12-02T07:53:06.838Z,17.80
2018-12-02T07:54:06.843Z,16.30
2018-12-02T07:55:06.819Z,18.60
2018-12-02T07:56:06.817Z,15.90
2018-12-02T07:57:06.810Z,16.30
2018-12-02T07:58:06.794Z,16.10
2018-12-02T07:59:06.786Z,15.50
2018-12-02T08:00:06.778Z,15.60
2018-12-02T08:01:06.786Z,17.20
2018-12-02T08:02:06.744Z,15.40
2018-12-02T08:03:06.741Z,17.10
2018-12-02T08:04:06.727Z,56.00
2018-12-02T08:05:06.721Z,58.30
2018-12-02T08:06:06.709Z,210.20
2018-12-02T08:07:06.717Z,84.70
2018-12-02T08:08:06.678Z,40.70
2018-12-02T08:09:06.674Z,18.00
2018-12-02T08:10:06.690Z,16.20
2018-12-02T08:11:06.670Z,16.00
2018-12-02T08:12:06.650Z,15.00
2018-12-02T08:13:06.631Z,16.60
2018-12-02T08:14:06.621Z,15.70
2018-12-02T08:15:06.612Z,15.40
2018-12-02T08:16:06.599Z,14.10
2018-12-02T08:17:06.608Z,14.80
2018-12-02T08:18:06.579Z,15.80
2018-12-02T08:19:06.568Z,16.20
2018-12-02T08:20:06.555Z,14.80
2018-12-02T08:21:06.541Z,14.90
2018-12-02T08:22:06.899Z,15.60
2018-12-02T08:23:06.525Z,16.10
2018-12-02T08:24:06.514Z,15.60
2018-12-02T08:25:06.497Z,15.90
2018-12-02T08:26:06.491Z,14.70
2018-12-02T08:27:06.490Z,15.20
2018-12-02T08:28:06.475Z,15.20
2018-12-02T08:29:06.462Z,14.80
2018-12-02T08:30:06.449Z,15.80
2018-12-02T08:31:06.433Z,15.50
2018-12-02T08:32:06.426Z,16.30
2018-12-02T08:33:06.428Z,15.90
2018-12-02T08:34:06.406Z,15.90
2018-12-02T08:35:06.391Z,16.10
2018-12-02T08:36:06.388Z,16.10
2018-12-02T08:37:06.374Z,16.10
2018-12-02T08:38:06.365Z,16.20
2018-12-02T08:39:06.357Z,16.70
2018-12-02T08:40:06.347Z,16.50
2018-12-02T08:41:06.328Z,16.10
2018-12-02T08:42:06.324Z,17.50
2018-12-02T08:43:06.341Z,15.90
2018-12-02T08:44:06.294Z,14.60
2018-12-02T08:45:06.292Z,15.30
2018-12-02T08:46:06.289Z,16.10
2018-12-02T08:47:06.267Z,14.90
2018-12-02T08:48:14.313Z,14.90
2018-12-02T08:49:06.280Z,14.90
2018-12-02T08:50:06.236Z,15.00
2018-12-02T08:51:06.224Z,15.20
2018-12-02T08:52:06.218Z,17.70
2018-12-02T08:53:06.259Z,16.20
2018-12-02T08:54:06.199Z,14.40
2018-12-02T08:55:06.185Z,15.60
2018-12-02T08:56:06.202Z,14.60
2018-12-02T08:57:06.342Z,14.60
2018-12-02T08:58:06.163Z,14.80
2018-12-02T08:59:06.151Z,15.20
2018-12-02T09:00:06.133Z,15.40
2018-12-02T09:01:06.119Z,16.70
2018-12-02T09:02:06.121Z,26.50
2018-12-02T09:03:06.102Z,137.60
2018-12-02T09:04:06.106Z,138.80
2018-12-02T09:05:06.077Z,61.80
2018-12-02T09:06:06.072Z,17.80
2018-12-02T09:07:06.063Z,14.90
2018-12-02T09:08:06.047Z,14.80
2018-12-02T09:09:06.048Z,15.40
2018-12-02T09:10:06.033Z,15.20
2018-12-02T09:11:06.019Z,14.10
2018-12-02T09:12:06.026Z,17.20
2018-12-02T09:13:05.988Z,16.30
2018-12-02T09:14:05.983Z,16.50
2018-12-02T09:15:05.973Z,16.20
2018-12-02T09:16:05.972Z,14.90
2018-12-02T09:17:05.987Z,14.50
2018-12-02T09:18:05.951Z,14.30
2018-12-02T09:19:05.929Z,15.60
2018-12-02T09:20:05.922Z,15.50
2018-12-02T09:21:05.909Z,14.40
2018-12-02T09:22:05.916Z,15.40
2018-12-02T09:23:05.899Z,15.00
2018-12-02T09:24:05.884Z,14.50
2018-12-02T09:25:05.864Z,14.60
2018-12-02T09:26:05.855Z,15.90
2018-12-02T09:27:05.848Z,13.70
2018-12-02T09:28:05.853Z,14.80
2018-12-02T09:29:05.832Z,15.40
2018-12-02T09:30:05.826Z,13.10
2018-12-02T09:31:05.802Z,13.10
2018-12-02T09:32:05.811Z,14.10
2018-12-02T09:33:05.786Z,14.70
2018-12-02T09:34:05.831Z,13.40
2018-12-02T09:35:05.765Z,14.20
2018-12-02T09:36:05.760Z,14.20
2018-12-02T09:37:05.795Z,13.60
2018-12-02T09:38:05.733Z,12.60
2018-12-02T09:39:05.724Z,16.30
2018-12-02T09:40:05.719Z,14.70
2018-12-02T09:41:05.702Z,14.00
2018-12-02T09:42:05.750Z,12.20
2018-12-02T09:43:05.701Z,15.10
2018-12-02T09:44:05.666Z,13.60
2018-12-02T09:45:05.652Z,13.20
2018-12-02T09:46:05.660Z,16.30
2018-12-02T09:47:05.647Z,12.90
2018-12-02T09:48:05.635Z,12.00
2018-12-02T09:49:05.617Z,13.40
2018-12-02T09:50:05.605Z,14.00
2018-12-02T09:51:05.587Z,12.10
2018-12-02T09:52:05.587Z,13.40
2018-12-02T09:53:05.576Z,12.60
2018-12-02T09:54:05.576Z,13.40
2018-12-02T09:55:05.547Z,12.10
2018-12-02T09:56:05.540Z,13.10
2018-12-02T09:57:05.539Z,11.70
2018-12-02T09:58:05.522Z,13.80
2018-12-02T09:59:05.531Z,11.60
2018-12-02T10:00:05.504Z,11.70
2018-12-02T10:01:05.488Z,11.50
2018-12-02T10:02:05.473Z,11.10
2018-12-02T10:03:05.482Z,11.30
2018-12-02T10:04:05.491Z,12.50
2018-12-02T10:05:05.452Z,12.20
2018-12-02T10:06:05.439Z,10.90
2018-12-02T10:07:05.418Z,12.40
2018-12-02T10:08:05.411Z,10.60
2018-12-02T10:09:05.398Z,11.20
2018-12-02T10:10:05.405Z,10.60
2018-12-02T10:11:05.389Z,12.50
2018-12-02T10:12:05.365Z,12.00
2018-12-02T10:13:05.375Z,10.30
2018-12-02T10:14:05.350Z,12.00
2018-12-02T10:15:05.336Z,10.70
2018-12-02T10:16:05.335Z,10.40
2018-12-02T10:17:05.311Z,11.20
2018-12-02T10:18:05.336Z,10.80
2018-12-02T10:19:05.290Z,10.60
2018-12-02T10:20:05.285Z,10.00
2018-12-02T10:21:05.268Z,10.60
2018-12-02T10:22:05.263Z,10.60
2018-12-02T10:23:05.270Z,10.30
2018-12-02T10:24:05.264Z,11.00
2018-12-02T10:25:05.231Z,10.70
2018-12-02T10:26:05.224Z,11.00
2018-12-02T10:27:05.209Z,9.70
2018-12-02T10:28:05.215Z,10.20
2018-12-02T10:29:06.328Z,9.80
2018-12-02T10:30:05.170Z,11.00
2018-12-02T10:31:05.172Z,9.80
2018-12-02T10:32:05.150Z,8.70
2018-12-02T10:33:05.139Z,9.30
2018-12-02T10:34:05.129Z,11.30
2018-12-02T10:35:05.128Z,11.20
2018-12-02T10:36:05.112Z,10.20
2018-12-02T10:37:05.094Z,9.00
2018-12-02T10:38:05.084Z,8.60
2018-12-02T10:39:05.079Z,10.70
2018-12-02T10:40:05.078Z,9.90
2018-12-02T10:41:05.067Z,11.10
2018-12-02T10:42:05.046Z,10.50
2018-12-02T10:43:05.036Z,9.80
2018-12-02T10:44:05.022Z,11.00
2018-12-02T10:45:05.024Z,10.20
2018-12-02T10:46:05.017Z,9.70
2018-12-02T10:47:04.997Z,9.60
2018-12-02T10:48:04.983Z,10.80
2018-12-02T10:49:04.976Z,11.30
2018-12-02T10:50:04.994Z,8.90
2018-12-02T10:51:04.962Z,10.10
2018-12-02T10:52:04.939Z,9.40
2018-12-02T10:53:04.926Z,9.30
2018-12-02T10:54:04.918Z,10.30
2018-12-02T10:55:04.908Z,11.50
2018-12-02T10:56:04.961Z,10.70
2018-12-02T10:57:04.887Z,9.20
2018-12-02T10:58:04.898Z,8.80
2018-12-02T10:59:04.872Z,9.60
2018-12-02T11:00:04.850Z,8.40
2018-12-02T11:01:04.838Z,10.30
2018-12-02T11:02:04.842Z,11.90
2018-12-02T11:03:04.826Z,11.50
2018-12-02T11:04:04.807Z,9.70
2018-12-02T11:05:04.811Z,9.50
2018-12-02T11:06:04.793Z,8.80
2018-12-02T11:07:04.799Z,10.40
2018-12-02T11:08:04.771Z,9.50
2018-12-02T11:09:04.767Z,8.40
2018-12-02T11:10:04.751Z,10.70
2018-12-02T11:11:04.758Z,8.90
2018-12-02T11:12:04.899Z,8.60
2018-12-02T11:13:04.725Z,8.70
2018-12-02T11:14:04.708Z,9.00
2018-12-02T11:15:04.700Z,10.40
2018-12-02T11:16:06.808Z,9.40
2018-12-02T11:17:04.669Z,9.00
2018-12-02T11:18:04.690Z,10.00
2018-12-02T11:19:04.652Z,8.90
2018-12-02T11:20:04.678Z,10.00
2018-12-02T11:21:04.654Z,9.40
2018-12-02T11:22:04.615Z,9.60
2018-12-02T11:23:04.613Z,10.00
2018-12-02T11:24:04.613Z,9.00
2018-12-02T11:25:04.585Z,10.00
2018-12-02T11:26:04.578Z,9.50
2018-12-02T11:27:04.562Z,86.40
2018-12-02T11:28:04.609Z,124.50
2018-12-02T11:29:04.550Z,69.30
2018-12-02T11:30:04.579Z,12.00
2018-12-02T11:31:04.524Z,9.10
2018-12-02T11:32:04.513Z,9.00
2018-12-02T11:33:04.502Z,9.10
2018-12-02T11:34:04.492Z,9.90
2018-12-02T11:35:04.486Z,9.80
2018-12-02T11:36:04.523Z,8.30
2018-12-02T11:37:04.485Z,8.70
2018-12-02T11:38:04.457Z,10.50
2018-12-02T11:39:04.438Z,8.20
2018-12-02T11:40:04.438Z,9.60
2018-12-02T11:41:04.436Z,8.70
2018-12-02T11:42:04.415Z,8.30
2018-12-02T11:43:04.399Z,11.00
2018-12-02T11:44:04.388Z,9.50
2018-12-02T11:45:04.371Z,9.80
2018-12-02T11:46:04.403Z,9.60
2018-12-02T11:47:04.351Z,99.10
2018-12-02T11:48:04.340Z,116.60
2018-12-02T11:49:04.339Z,164.60
2018-12-02T11:50:04.320Z,50.10
2018-12-02T11:51:04.312Z,9.30
2018-12-02T11:52:04.312Z,9.30
2018-12-02T11:53:04.291Z,9.40
2018-12-02T11:54:04.274Z,7.90
2018-12-02T11:55:04.270Z,8.30
2018-12-02T11:56:04.263Z,8.90
2018-12-02T11:57:04.253Z,9.50
2018-12-02T11:58:04.241Z,8.10
2018-12-02T11:59:04.223Z,8.20
2018-12-02T12:00:04.256Z,7.80
2018-12-02T12:01:04.213Z,9.00
2018-12-02T12:02:07.673Z,7.90
2018-12-02T12:03:04.183Z,8.40
2018-12-02T12:04:04.177Z,8.50
2018-12-02T12:05:04.165Z,8.80
2018-12-02T12:06:04.165Z,8.30
2018-12-02T12:07:04.156Z,8.40
2018-12-02T12:08:04.127Z,8.60
2018-12-02T12:09:04.119Z,8.40
2018-12-02T12:10:04.112Z,7.80
2018-12-02T12:11:04.162Z,8.60
2018-12-02T12:12:04.085Z,8.80
2018-12-02T12:13:04.080Z,9.10
2018-12-02T12:14:04.066Z,9.40
2018-12-02T12:15:04.059Z,8.10
2018-12-02T12:16:04.053Z,8.70
2018-12-02T12:17:04.055Z,8.20
2018-12-02T12:18:04.026Z,7.90
2018-12-02T12:19:04.013Z,8.50
2018-12-02T12:20:04.016Z,8.00
2018-12-02T12:21:03.993Z,8.80
2018-12-02T12:22:03.987Z,8.50
2018-12-02T12:23:03.969Z,9.10
2018-12-02T12:24:03.967Z,8.40
2018-12-02T12:25:03.960Z,9.40
2018-12-02T12:26:03.949Z,8.90
2018-12-02T12:27:03.930Z,8.80
2018-12-02T12:28:03.941Z,8.60
2018-12-02T12:29:03.907Z,9.80
2018-12-02T12:30:03.901Z,8.90
2018-12-02T12:31:03.900Z,8.60
2018-12-02T12:32:03.884Z,9.30
2018-12-02T12:33:03.865Z,8.40
2018-12-02T12:34:03.872Z,10.60
2018-12-02T12:35:03.880Z,9.40
2018-12-02T12:36:03.838Z,8.80
2018-12-02T12:37:03.819Z,10.20
2018-12-02T12:38:03.813Z,9.00
2018-12-02T12:39:03.831Z,9.30
2018-12-02T12:40:03.807Z,8.80
2018-12-02T12:41:03.775Z,9.30
2018-12-02T12:42:03.772Z,8.90
2018-12-02T12:43:03.759Z,9.90
2018-12-02T12:44:03.758Z,9.70
2018-12-02T12:45:03.747Z,10.00
2018-12-02T12:46:03.733Z,8.90
2018-12-02T12:47:03.723Z,9.60
2018-12-02T12:48:03.706Z,9.60
2018-12-02T12:49:03.695Z,10.50
2018-12-02T12:50:03.696Z,8.90
2018-12-02T12:51:03.707Z,10.40
2018-12-02T12:52:03.671Z,8.80
2018-12-02T12:53:03.648Z,10.20
2018-12-02T12:54:03.637Z,9.80
2018-12-02T12:55:03.644Z,8.80